Time;durP1;ratioP1;P1;durP2;ratioP2;P2;SDS_P1;SDS_P2;PMS_P1;PMS_P2;Temp;Humidity;BMP_temperature;BMP_pressure;BME280_temperature;BME280_humidity;BME280_pressure;Samples;Min_cycle;Max_cycle;Signal;HPM_P1;HPM_P2
2023/06/21 01:02:13;;;;;;;10.43;8.90;;;;;;;19.06;100.00;100905.50;6262956;22;20051;-80
2023/06/21 01:04:40;;;;;;;12.43;9.73;;;;;;;19.30;100.00;100918.47;6199567;22;20011;-78
2023/06/21 01:07:18;;;;;;;9.77;8.70;;;;;;;19.28;100.00;100931.63;6248978;22;20431;-78
2023/06/21 01:10:12;;;;;;;12.38;9.02;;;;;;;19.23;100.00;100940.53;6223638;22;20011;-80
2023/06/21 01:12:57;;;;;;;12.10;9.10;;;;;;;19.15;100.00;100937.75;6224183;22;20498;-79
2023/06/21 01:15:25;;;;;;;10.88;8.57;;;;;;;19.20;100.00;100943.66;6249292;22;20012;-79
2023/06/21 01:17:53;;;;;;;12.45;8.82;;;;;;;19.03;100.00;100937.22;6249820;22;20428;-78
2023/06/21 01:20:25;;;;;;;13.23;9.20;;;;;;;18.95;100.00;100936.38;6249153;22;20007;-78
2023/06/21 01:23:15;;;;;;;9.82;7.95;;;;;;;18.81;100.00;100935.16;6224534;22;20012;-79
2023/06/21 01:26:06;;;;;;;14.00;8.98;;;;;;;19.04;100.00;100927.03;6276103;22;20011;-79
2023/06/21 01:28:43;;;;;;;11.55;9.20;;;;;;;19.25;100.00;100924.53;6223453;22;20014;-78
2023/06/21 01:31:15;;;;;;;10.82;8.90;;;;;;;18.94;100.00;100934.63;6194615;23;20106;-79
2023/06/21 01:33:41;;;;;;;12.57;9.57;;;;;;;18.92;100.00;100944.03;6218488;23;20004;-80
2023/06/21 01:36:09;;;;;;;12.02;9.02;;;;;;;19.12;100.00;100945.53;6219117;23;20012;-79
2023/06/21 01:38:34;;;;;;;17.23;9.48;;;;;;;18.94;100.00;100940.19;6218102;23;20074;-79
2023/06/21 01:41:01;;;;;;;11.50;9.80;;;;;;;19.07;100.00;100937.75;6245417;23;20012;-79
2023/06/21 01:43:27;;;;;;;13.02;9.07;;;;;;;18.97;100.00;100937.97;6194568;23;20011;-79
2023/06/21 01:45:53;;;;;;;14.50;9.82;;;;;;;18.90;100.00;100943.31;6195292;23;20107;-79
2023/06/21 01:48:19;;;;;;;14.77;9.73;;;;;;;19.16;100.00;100946.94;6195265;23;20401;-79
2023/06/21 01:50:46;;;;;;;13.35;10.10;;;;;;;19.16;100.00;100950.56;6245795;23;20384;-79
2023/06/21 01:53:13;;;;;;;12.82;9.38;;;;;;;19.09;100.00;100941.22;6246417;23;20012;-79
2023/06/21 01:55:44;;;;;;;17.85;10.27;;;;;;;19.12;100.00;100945.53;6194551;23;20011;-79
2023/06/21 01:58:12;;;;;;;18.88;11.20;;;;;;;18.97;100.00;100940.72;6219219;23;20012;-78
2023/06/21 02:00:38;;;;;;;13.55;10.02;;;;;;;18.94;100.00;100935.53;6218593;23;20016;-79
2023/06/21 02:03:09;;;;;;;14.20;9.45;;;;;;;18.92;100.00;100946.78;6245549;23;20004;-80
2023/06/21 02:05:35;;;;;;;15.40;10.88;;;;;;;19.16;100.00;100953.34;6218106;23;20062;-80
2023/06/21 02:08:04;;;;;;;13.88;10.20;;;;;;;19.14;100.00;100949.91;6218356;23;20012;-79
2023/06/21 02:10:30;;;;;;;13.05;10.60;;;;;;;19.26;100.00;100959.56;6246302;23;20019;-79
2023/06/21 02:12:56;;;;;;;13.00;10.18;;;;;;;19.26;100.00;100959.56;6196182;23;20427;-79
2023/06/21 02:15:22;;;;;;;15.32;10.88;;;;;;;19.33;100.00;100967.22;6195865;23;20008;-80
2023/06/21 02:17:51;;;;;;;12.82;11.02;;;;;;;19.34;100.00;100957.84;6171309;23;20004;-79
2023/06/21 02:20:19;;;;;;;13.05;10.05;;;;;;;18.81;100.00;100977.63;6220779;23;20015;-79
2023/06/21 02:22:46;;;;;;;13.00;10.30;;;;;;;18.88;100.00;100994.47;6221625;23;20328;-79
2023/06/21 02:25:14;;;;;;;17.83;11.50;;;;;;;19.05;100.00;100989.78;6247513;23;20024;-79
2023/06/21 02:27:39;;;;;;;14.75;11.57;;;;;;;18.96;100.00;100986.16;6247990;23;20008;-80
2023/06/21 02:30:08;;;;;;;16.58;11.90;;;;;;;18.65;100.00;100978.47;6221783;23;20066;-80
2023/06/21 02:32:34;;;;;;;15.57;11.43;;;;;;;18.81;100.00;100999.81;6248044;23;20024;-80
2023/06/21 02:35:00;;;;;;;15.65;11.55;;;;;;;18.90;100.00;101003.50;6196605;23;20379;-80
2023/06/21 02:37:29;;;;;;;15.82;11.82;;;;;;;18.79;100.00;101003.78;6247970;23;20016;-80
2023/06/21 02:39:58;;;;;;;18.48;12.63;;;;;;;18.77;100.00;101009.50;6195788;23;20023;-79
2023/06/21 02:42:29;;;;;;;16.92;12.35;;;;;;;18.75;100.00;101019.91;6195841;23;20015;-80
2023/06/21 02:44:55;;;;;;;19.08;12.05;;;;;;;18.74;100.00;101018.16;6246891;23;20015;-80
2023/06/21 02:47:20;;;;;;;17.88;12.38;;;;;;;18.81;100.00;101016.47;6195806;23;20342;-80
2023/06/21 02:49:46;;;;;;;15.48;12.35;;;;;;;18.72;100.00;101009.16;6220521;23;20012;-79
2023/06/21 02:52:11;;;;;;;14.45;12.70;;;;;;;18.66;100.00;101009.84;6195735;23;20511;-80
2023/06/21 02:54:37;;;;;;;23.67;13.38;;;;;;;18.82;100.00;101009.00;6196900;23;20103;-79
2023/06/21 02:57:03;;;;;;;16.80;12.82;;;;;;;18.81;100.00;101010.91;6221282;23;20395;-80
2023/06/21 02:59:29;;;;;;;19.15;13.65;;;;;;;18.81;100.00;101013.69;6171299;23;20012;-80
2023/06/21 03:01:55;;;;;;;17.70;13.63;;;;;;;18.69;100.00;101026.16;6247271;23;20379;-80
2023/06/21 03:04:21;;;;;;;17.65;14.15;;;;;;;18.70;100.00;101028.75;6220554;23;20027;-80
2023/06/21 03:06:46;;;;;;;19.15;14.60;;;;;;;18.73;100.00;101025.63;6196124;23;20008;-80
2023/06/21 03:09:12;;;;;;;19.67;15.43;;;;;;;18.74;100.00;101026.50;6195681;23;20020;-80
2023/06/21 03:11:38;;;;;;;18.80;14.68;;;;;;;18.60;100.00;101032.72;6220557;23;20015;-80
2023/06/21 03:14:03;;;;;;;21.40;15.15;;;;;;;18.72;100.00;101031.34;6194731;23;20380;-79
2023/06/21 03:16:30;;;;;;;24.85;15.98;;;;;;;18.73;100.00;101039.50;6195424;23;20424;-80
2023/06/21 03:18:55;;;;;;;19.95;15.52;;;;;;;18.66;100.00;101044.00;6196001;23;20134;-80
2023/06/21 03:21:22;;;;;;;24.33;16.55;;;;;;;18.64;100.00;101048.84;6219491;23;20091;-80
2023/06/21 03:23:48;;;;;;;22.30;16.35;;;;;;;18.80;100.00;101048.00;6220585;23;20005;-79
2023/06/21 03:26:14;;;;;;;22.25;15.68;;;;;;;18.79;100.00;101051.84;6220043;23;20043;-80
2023/06/21 03:28:41;;;;;;;22.77;16.20;;;;;;;18.79;100.00;101042.63;6220591;23;20016;-80
2023/06/21 03:31:06;;;;;;;24.88;16.33;;;;;;;18.65;100.00;101049.72;6170521;23;20104;-80
2023/06/21 03:33:32;;;;;;;23.52;16.65;;;;;;;18.45;100.00;101046.38;6220523;23;20000;-80
2023/06/21 03:35:57;;;;;;;23.27;16.83;;;;;;;18.62;100.00;101050.06;6220562;23;20332;-80
2023/06/21 03:38:23;;;;;;;22.45;16.33;;;;;;;18.63;100.00;101051.81;6195222;23;20038;-80
2023/06/21 03:40:48;;;;;;;21.80;15.63;;;;;;;18.66;100.00;101063.44;6223178;23;20101;-80
2023/06/21 03:43:15;;;;;;;24.38;16.88;;;;;;;18.64;100.00;101061.84;6221814;23;20004;-80
2023/06/21 03:45:40;;;;;;;26.38;17.30;;;;;;;18.82;100.00;101067.25;6196091;23;20008;-80
2023/06/21 03:48:06;;;;;;;24.95;17.15;;;;;;;19.16;100.00;101063.53;6221519;23;20066;-80
2023/06/21 03:50:32;;;;;;;23.25;16.25;;;;;;;19.20;100.00;101065.78;6195443;23;20061;-79
2023/06/21 03:52:58;;;;;;;22.08;16.67;;;;;;;19.22;100.00;101072.03;6219636;23;20004;-80
2023/06/21 03:55:23;;;;;;;21.60;16.75;;;;;;;19.25;100.00;101062.47;6219213;23;20016;-79
2023/06/21 03:57:49;;;;;;;21.73;15.40;;;;;;;19.25;100.00;101068.03;6246672;23;20046;-80
2023/06/21 04:00:15;;;;;;;23.00;16.73;;;;;;;19.16;100.00;101063.53;6246210;23;20035;-80
2023/06/21 04:02:41;;;;;;;21.70;16.98;;;;;;;19.30;100.00;101073.97;6220026;23;20019;-79
2023/06/21 04:05:09;;;;;;;23.02;16.30;;;;;;;19.36;100.00;101067.69;6195242;23;20013;-78
2023/06/21 04:07:34;;;;;;;22.80;16.80;;;;;;;19.34;100.00;101071.69;6267886;22;19996;-78
2023/06/21 04:17:45;;;;;;;22.27;15.93;;;;;;;19.18;100.00;101042.88;6189154;22;20024;-78
2023/06/21 04:20:13;;;;;;;25.92;16.92;;;;;;;19.33;100.00;101054.13;6225168;22;20030;-80
2023/06/21 04:22:40;;;;;;;29.00;16.73;;;;;;;19.19;100.00;101064.03;6248005;22;20071;-78
2023/06/21 04:25:07;;;;;;;21.00;16.42;;;;;;;19.28;100.00;101068.56;6293037;22;20007;-78
2023/06/21 04:27:32;;;;;;;24.10;16.80;;;;;;;19.04;100.00;101082.44;6243167;22;20762;-78
2023/06/21 04:29:57;;;;;;;20.42;16.08;;;;;;;19.01;100.00;101080.84;6209938;23;20031;-76
2023/06/21 04:32:23;;;;;;;21.95;16.85;;;;;;;18.91;100.00;101086.56;6199719;23;19999;-76
2023/06/21 04:34:49;;;;;;;21.08;15.40;;;;;;;19.16;100.00;101088.50;6222868;23;20012;-76
2023/06/21 04:37:14;;;;;;;25.08;17.08;;;;;;;19.23;100.00;101086.78;6211652;23;20012;-77
2023/06/21 04:39:39;;;;;;;20.17;15.73;;;;;;;19.17;100.00;101096.69;6241249;23;20008;-76
2023/06/21 04:42:05;;;;;;;23.58;17.55;;;;;;;19.31;100.00;101108.13;6214408;23;20016;-76
2023/06/21 04:44:31;;;;;;;25.58;16.23;;;;;;;19.59;100.00;101112.28;6234881;23;20028;-76
2023/06/21 04:47:00;;;;;;;18.98;15.55;;;;;;;19.55;100.00;101101.72;6216088;23;20027;-76
2023/06/21 04:49:26;;;;;;;24.35;17.17;;;;;;;19.44;100.00;101102.91;6161722;23;20012;-75
2023/06/21 04:51:53;;;;;;;24.02;17.05;;;;;;;19.64;100.00;101107.09;6234026;23;20038;-76
2023/06/21 04:54:22;;;;;;;23.70;16.27;;;;;;;19.43;100.00;101103.94;6237687;23;20003;-75
2023/06/21 04:56:49;;;;;;;29.63;16.90;;;;;;;19.41;100.00;101106.03;6243662;23;19988;-76
2023/06/21 04:59:15;;;;;;;23.27;16.35;;;;;;;19.44;100.00;101108.47;6265746;23;20014;-76
2023/06/21 05:01:41;;;;;;;23.90;16.20;;;;;;;19.37;100.00;101105.53;6236158;23;20031;-76
2023/06/21 05:04:06;;;;;;;24.05;16.38;;;;;;;19.52;100.00;101102.06;6234669;23;20008;-78
2023/06/21 05:06:31;;;;;;;22.23;15.30;;;;;;;19.54;100.00;101111.94;6222763;23;20354;-78
2023/06/21 05:08:57;;;;;;;22.80;16.42;;;;;;;19.61;100.00;101115.78;6223853;23;20058;-75
2023/06/21 05:11:22;;;;;;;25.52;17.25;;;;;;;19.72;100.00;101113.66;6221790;23;20016;-75
2023/06/21 05:13:48;;;;;;;23.92;16.48;;;;;;;19.84;100.00;101115.09;6197820;23;20016;-77
2023/06/21 05:16:13;;;;;;;24.13;16.70;;;;;;;19.88;100.00;101115.59;6250416;23;20107;-75
2023/06/21 05:18:39;;;;;;;20.08;16.48;;;;;;;19.99;100.00;101121.66;6222051;23;20050;-75
2023/06/21 05:21:04;;;;;;;22.75;15.60;;;;;;;20.05;100.00;101125.63;6249330;23;20325;-74
2023/06/21 05:23:30;;;;;;;19.55;15.52;;;;;;;20.01;100.00;101130.69;6221937;23;20446;-74
2023/06/21 05:25:55;;;;;;;24.85;16.45;;;;;;;20.24;100.00;101137.41;6197931;23;20404;-74
2023/06/21 05:28:21;;;;;;;20.50;15.63;;;;;;;20.39;100.00;101127.28;6251497;23;20087;-74
2023/06/21 05:30:46;;;;;;;26.88;15.98;;;;;;;20.33;100.00;101136.31;6251913;23;20062;-74
2023/06/21 05:33:14;;;;;;;19.98;14.77;;;;;;;20.72;100.00;101135.50;6180854;23;20062;-74
2023/06/21 05:35:40;;;;;;;22.33;15.82;;;;;;;20.82;100.00;101141.72;6254980;23;20376;-74
2023/06/21 05:38:06;;;;;;;20.75;15.15;;;;;;;20.91;100.00;101139.78;6200033;23;20062;-75
2023/06/21 05:40:31;;;;;;;23.23;15.15;;;;;;;20.57;100.00;101140.94;6252357;23;20012;-74
2023/06/21 05:43:01;;;;;;;20.92;14.75;;;;;;;20.71;100.00;101142.09;6227077;23;20339;-74
2023/06/21 05:45:29;;;;;;;21.63;14.48;;;;;;;21.06;100.00;101145.41;6225589;23;20017;-74
2023/06/21 05:47:56;;;;;;;19.80;14.20;;;;;;;21.17;100.00;101144.13;6197809;23;20043;-74
2023/06/21 05:50:22;;;;;;;18.80;14.18;;;;;;;21.48;100.00;101147.75;6223539;23;20067;-74
2023/06/21 05:52:47;;;;;;;20.05;14.80;;;;;;;21.54;100.00;101154.50;6198582;23;20103;-74
2023/06/21 05:55:13;;;;;;;21.48;14.70;;;;;;;21.43;100.00;101152.13;6199258;23;20024;-78
2023/06/21 05:57:38;;;;;;;20.85;14.27;;;;;;;21.29;100.00;101163.00;6198113;23;20020;-74
2023/06/21 06:00:08;;;;;;;19.65;14.15;;;;;;;21.26;100.00;101159.72;6203150;23;20015;-76
2023/06/21 06:02:34;;;;;;;23.45;14.27;;;;;;;20.95;100.00;101162.53;6229116;23;20059;-75
2023/06/21 06:04:59;;;;;;;20.15;14.43;;;;;;;21.13;100.00;101163.13;6247470;23;20095;-77
2023/06/21 06:07:25;;;;;;;19.58;14.50;;;;;;;21.35;100.00;101169.78;6169265;23;20016;-78
2023/06/21 06:09:50;;;;;;;21.35;14.40;;;;;;;21.83;100.00;101172.38;6167768;23;20334;-76
2023/06/21 06:12:17;;;;;;;16.55;13.40;;;;;;;22.09;100.00;101174.75;6167471;23;20032;-76
2023/06/21 06:14:43;;;;;;;19.95;13.75;;;;;;;21.90;100.00;101178.94;6168600;23;20013;-77
2023/06/21 06:17:08;;;;;;;18.60;13.43;;;;;;;21.86;100.00;101183.16;6192696;23;20024;-78
2023/06/21 06:19:34;;;;;;;19.52;13.73;;;;;;;21.89;100.00;101182.78;6227117;23;20016;-79
2023/06/21 06:21:59;;;;;;;15.95;11.63;;;;;;;21.27;100.00;101189.34;6223916;23;20016;-78
2023/06/21 06:24:25;;;;;;;20.88;11.95;;;;;;;21.44;100.00;101195.66;6252157;23;20015;-79
2023/06/21 06:26:50;;;;;;;15.23;12.68;;;;;;;21.61;100.00;101200.09;6210766;23;20317;-78
2023/06/21 06:29:16;;;;;;;19.20;12.85;;;;;;;21.95;100.00;101200.69;6198429;23;20019;-79
2023/06/21 06:31:41;;;;;;;17.42;12.93;;;;;;;21.73;100.00;101206.09;6199995;23;20015;-80
2023/06/21 06:34:07;;;;;;;16.40;12.60;;;;;;;21.65;100.00;101208.94;6204728;23;20039;-79
2023/06/21 06:36:32;;;;;;;15.73;12.77;;;;;;;21.48;100.00;101211.84;6196079;23;20016;-80
2023/06/21 06:38:57;;;;;;;15.10;11.93;;;;;;;21.16;100.00;101212.03;6196810;23;20012;-80
2023/06/21 06:41:23;;;;;;;25.42;13.73;;;;;;;21.17;100.00;101222.97;6203553;23;20019;-80
2023/06/21 06:43:49;;;;;;;18.73;12.93;;;;;;;21.28;100.00;101218.91;6218243;23;20066;-80
2023/06/21 06:46:14;;;;;;;20.05;14.07;;;;;;;21.20;100.00;101218.94;6218656;23;20435;-80
2023/06/21 06:48:40;;;;;;;19.63;14.45;;;;;;;21.25;100.00;101227.63;6219100;23;20051;-80
2023/06/21 06:51:05;;;;;;;18.85;14.48;;;;;;;21.42;100.00;101234.84;6219672;23;20012;-79
2023/06/21 06:53:33;;;;;;;21.30;15.07;;;;;;;21.77;100.00;101238.09;6168906;23;20042;-80
2023/06/21 06:56:02;;;;;;;19.85;14.93;;;;;;;22.02;100.00;101233.22;6194929;23;20012;-80
2023/06/21 06:58:28;;;;;;;19.70;15.95;;;;;;;21.74;100.00;101238.50;6221276;23;20011;-80
2023/06/21 07:00:54;;;;;;;23.02;16.42;;;;;;;21.40;100.00;101241.66;6197123;23;20039;-80
2023/06/21 07:03:20;;;;;;;23.40;16.02;;;;;;;21.30;100.00;101248.31;6221085;23;20008;-81
2023/06/21 07:05:47;;;;;;;23.98;16.70;;;;;;;21.71;100.00;101240.78;6248680;23;20086;-80
2023/06/21 07:08:12;;;;;;;20.40;15.95;;;;;;;22.62;100.00;101238.06;6222538;23;20324;-82
2023/06/21 07:10:38;;;;;;;19.13;15.15;;;;;;;23.66;100.00;101244.38;6227213;23;20004;-81
2023/06/21 07:13:05;;;;;;;18.55;15.10;;;;;;;23.93;100.00;101247.47;6204271;23;20029;-81
2023/06/21 07:15:31;;;;;;;20.70;15.80;;;;;;;23.35;100.00;101249.38;6250087;23;20012;-81
2023/06/21 07:17:56;;;;;;;37.03;17.67;;;;;;;23.66;100.00;101246.28;6220614;23;20011;-81
2023/06/21 07:20:22;;;;;;;20.17;15.60;;;;;;;23.75;100.00;101244.25;6201178;23;20104;-81
2023/06/21 07:22:47;;;;;;;25.50;16.17;;;;;;;24.38;100.00;101250.88;6224552;23;20008;-81
2023/06/21 07:25:13;;;;;;;23.10;16.40;;;;;;;23.65;100.00;101258.56;6174102;23;20085;-81
2023/06/21 07:27:38;;;;;;;18.55;15.32;;;;;;;23.48;100.00;101269.09;6199206;23;20016;-81
2023/06/21 07:30:05;;;;;;;18.95;15.95;;;;;;;23.16;100.00;101259.25;6225190;23;20015;-81
2023/06/21 07:32:30;;;;;;;20.45;16.52;;;;;;;22.85;100.00;101258.38;6220967;23;20012;-81
2023/06/21 07:34:58;;;;;;;18.45;16.27;;;;;;;23.17;100.00;101261.84;6196251;23;20083;-81
2023/06/21 07:37:23;;;;;;;20.73;15.15;;;;;;;23.55;100.00;101256.06;6197333;23;20008;-80
2023/06/21 07:39:49;;;;;;;25.33;17.55;;;;;;;22.94;100.00;101262.81;6219829;23;20110;-81
2023/06/21 07:42:14;;;;;;;19.95;16.80;;;;;;;23.07;100.00;101266.84;6195636;23;20016;-80
2023/06/21 07:44:40;;;;;;;19.42;17.00;;;;;;;23.12;100.00;101258.78;6196923;23;20335;-81
2023/06/21 07:47:05;;;;;;;23.45;18.45;;;;;;;22.39;100.00;101272.47;6172702;23;20039;-81
2023/06/21 07:49:31;;;;;;;21.42;16.40;;;;;;;22.78;100.00;101268.59;6195256;23;20016;-80
2023/06/21 07:51:56;;;;;;;22.80;18.05;;;;;;;22.48;100.00;101276.94;6247702;23;20042;-81
2023/06/21 07:54:22;;;;;;;20.45;17.15;;;;;;;22.97;100.00;101283.88;6171377;23;20015;-81
2023/06/21 07:56:47;;;;;;;23.08;17.38;;;;;;;23.03;100.00;101279.47;6195297;23;20439;-81
2023/06/21 07:59:13;;;;;;;20.25;16.33;;;;;;;24.08;100.00;101288.50;6245790;23;20095;-81
2023/06/21 08:01:38;;;;;;;15.43;13.38;;;;;;;25.00;100.00;101281.91;6246856;23;20014;-81
2023/06/21 08:04:04;;;;;;;18.73;14.48;;;;;;;24.21;100.00;101278.28;6219781;23;20010;-81
2023/06/21 08:06:29;;;;;;;17.95;14.45;;;;;;;24.31;100.00;101279.88;6222432;23;20086;-82
2023/06/21 08:08:54;;;;;;;18.88;14.02;;;;;;;24.55;100.00;101281.38;6195423;23;20146;-82
2023/06/21 08:11:21;;;;;;;18.73;13.90;;;;;;;24.93;100.00;101287.47;6221201;23;20019;-82
2023/06/21 08:13:46;;;;;;;19.02;14.25;;;;;;;25.12;100.00;101293.41;6248947;23;20004;-83
2023/06/21 08:16:12;;;;;;;15.38;13.15;;;;;;;25.63;100.00;101298.63;6248935;23;20099;-83
2023/06/21 08:18:37;;;;;;;16.13;11.73;;;;;;;25.64;100.00;101296.69;6172062;23;20470;-82
2023/06/21 08:21:07;;;;;;;25.58;11.23;;;;;;;26.16;100.00;101297.06;6221395;23;20054;-83
2023/06/21 08:23:33;;;;;;;20.45;12.13;;;;;;;25.18;100.00;101303.78;6219888;23;20012;-81
2023/06/21 08:26:00;;;;;;;17.45;12.23;;;;;;;25.95;100.00;101306.50;6171892;23;20018;-84
2023/06/21 08:28:25;;;;;;;14.43;11.50;;;;;;;25.54;100.00;101305.50;6221692;23;20011;-83
2023/06/21 08:30:51;;;;;;;13.88;12.05;;;;;;;25.01;100.00;101319.22;6196384;23;20459;-83
2023/06/21 08:33:16;;;;;;;14.55;11.40;;;;;;;25.70;100.00;101311.81;6248282;23;20008;-84
2023/06/21 08:35:44;;;;;;;12.63;9.73;;;;;;;25.33;100.00;101319.63;6221733;23;20070;-81
2023/06/21 08:38:09;;;;;;;12.93;11.30;;;;;;;24.64;100.00;101308.19;6222230;23;20077;-83
2023/06/21 08:40:38;;;;;;;13.02;11.23;;;;;;;24.96;100.00;101308.63;6196967;23;20015;-84
2023/06/21 08:43:04;;;;;;;14.15;11.68;;;;;;;25.84;100.00;101311.66;6173193;23;20019;-83
2023/06/21 08:45:29;;;;;;;11.05;9.95;;;;;;;26.71;100.00;101308.97;6199411;23;20008;-83
2023/06/21 08:48:01;;;;;;;13.57;10.07;;;;;;;25.34;100.00;101316.63;6196402;23;20074;-84
2023/06/21 08:50:29;;;;;;;13.48;10.30;;;;;;;24.42;100.00;101312.94;6197258;23;20015;-84
2023/06/21 08:53:02;;;;;;;16.35;10.27;;;;;;;25.04;100.00;101314.06;6196468;23;20034;-83
2023/06/21 08:55:29;;;;;;;9.85;8.85;;;;;;;25.17;100.00;101320.81;6197850;23;20023;-83
2023/06/21 08:58:09;;;;;;;8.57;7.72;;;;;;;25.99;100.00;101319.91;6247357;23;20432;-83
2023/06/21 09:00:51;;;;;;;10.73;8.93;;;;;;;25.59;100.00;101321.69;6247971;23;20011;-83
2023/06/21 09:03:26;;;;;;;7.50;6.80;;;;;;;25.63;100.00;101323.88;6197022;23;20012;-83
2023/06/21 09:05:59;;;;;;;9.57;7.90;;;;;;;25.93;97.09;101322.69;6221709;23;20106;-83
2023/06/21 09:08:25;;;;;;;11.68;7.18;;;;;;;26.44;96.57;101313.69;6222999;23;20091;-83
2023/06/21 09:10:52;;;;;;;11.90;7.88;;;;;;;26.32;94.29;101309.81;6222406;23;20439;-83
2023/06/21 09:13:19;;;;;;;11.40;8.10;;;;;;;26.07;97.59;101307.59;6196770;23;20008;-83
2023/06/21 09:15:47;;;;;;;7.55;5.75;;;;;;;25.99;89.95;101319.03;6222793;23;20083;-83
2023/06/21 09:18:13;;;;;;;7.18;5.93;;;;;;;26.42;89.44;101315.88;6196314;23;20440;-84
2023/06/21 09:20:41;;;;;;;9.30;5.93;;;;;;;27.07;84.68;101312.34;6221916;23;20015;-84
2023/06/21 09:23:08;;;;;;;10.02;6.03;;;;;;;26.22;88.08;101316.72;6246520;23;20343;-84
2023/06/21 09:25:33;;;;;;;7.47;5.90;;;;;;;26.85;83.40;101315.44;6222428;23;20008;-84
2023/06/21 09:27:59;;;;;;;8.13;5.32;;;;;;;27.20;82.26;101311.47;6249419;23;20339;-84
2023/06/21 09:30:25;;;;;;;9.63;4.75;;;;;;;27.54;82.39;101318.72;6196189;23;20016;-82
2023/06/21 09:32:50;;;;;;;5.90;4.78;;;;;;;27.64;76.71;101330.34;6221393;23;20024;-84
2023/06/21 09:35:16;;;;;;;9.32;5.47;;;;;;;27.38;75.59;101324.84;6220611;23;20008;-83
2023/06/21 09:37:41;;;;;;;10.48;5.53;;;;;;;27.39;76.35;101324.63;6220348;23;20008;-83
2023/06/21 09:40:09;;;;;;;5.80;5.28;;;;;;;27.59;75.87;101332.97;6247611;23;20078;-84
2023/06/21 09:42:39;;;;;;;6.43;5.82;;;;;;;27.81;76.60;101327.91;6220959;23;20004;-84
2023/06/21 09:45:11;;;;;;;7.38;6.55;;;;;;;27.88;73.79;101328.72;6221492;23;20558;-84
2023/06/21 09:47:41;;;;;;;7.20;6.40;;;;;;;27.42;75.46;101334.59;6220336;23;20054;-84
2023/06/21 09:50:07;;;;;;;8.75;7.95;;;;;;;26.33;82.08;101326.44;6221003;23;20019;-84
2023/06/21 09:52:32;;;;;;;8.98;8.07;;;;;;;26.92;81.88;101335.09;6195349;23;20130;-83
2023/06/21 09:54:58;;;;;;;7.35;5.93;;;;;;;27.26;77.54;101338.72;6221132;23;20331;-84
2023/06/21 09:57:31;;;;;;;9.35;6.60;;;;;;;27.22;74.54;101338.28;6195783;23;20361;-84
2023/06/21 09:59:59;;;;;;;7.53;5.97;;;;;;;28.04;69.96;101341.44;6195601;23;20497;-83
2023/06/21 10:02:25;;;;;;;6.10;5.55;;;;;;;27.66;69.88;101345.09;6249331;23;20121;-85
2023/06/21 10:04:54;;;;;;;7.03;6.07;;;;;;;27.67;71.86;101340.31;6223892;23;20420;-85
2023/06/21 10:07:21;;;;;;;24.15;8.35;;;;;;;28.17;67.74;101351.78;6174052;23;20043;-85
2023/06/21 10:09:47;;;;;;;9.00;6.68;;;;;;;27.69;69.28;101352.19;6223543;23;20094;-84
2023/06/21 10:12:14;;;;;;;8.57;7.68;;;;;;;27.93;66.56;101356.25;6221708;23;20012;-85
2023/06/21 10:14:40;;;;;;;10.70;7.82;;;;;;;28.30;67.75;101355.56;6222842;23;20004;-85
2023/06/21 10:17:07;;;;;;;8.80;7.68;;;;;;;27.93;69.16;101344.09;6202860;23;20432;-84
2023/06/21 10:19:34;;;;;;;9.05;8.07;;;;;;;27.82;66.49;101349.31;6191664;23;20013;-84
2023/06/21 10:22:13;;;;;;;16.63;7.40;;;;;;;28.17;70.04;101351.78;6217482;23;20009;-84
2023/06/21 10:24:48;;;;;;;8.57;7.75;;;;;;;28.02;67.19;101360.53;6217122;23;20067;-84
2023/06/21 10:27:15;;;;;;;11.27;7.97;;;;;;;27.56;69.71;101357.88;6241176;23;20009;-84
2023/06/21 10:29:43;;;;;;;8.35;7.68;;;;;;;28.67;63.17;101362.25;6215609;23;20012;-84
2023/06/21 10:32:09;;;;;;;9.10;8.20;;;;;;;28.48;64.04;101363.25;6218197;23;20009;-84
2023/06/21 10:34:55;;;;;;;8.35;7.60;;;;;;;28.04;65.96;101365.94;6191604;23;20008;-84
2023/06/21 10:37:27;;;;;;;8.77;7.85;;;;;;;27.88;67.23;101359.69;6242077;23;20056;-83
2023/06/21 10:39:57;;;;;;;8.43;7.70;;;;;;;27.32;70.16;101358.41;6217690;23;20079;-85
2023/06/21 10:42:24;;;;;;;6.88;6.18;;;;;;;27.55;66.24;101370.22;6217719;23;20004;-84
2023/06/21 10:44:51;;;;;;;7.75;6.07;;;;;;;28.11;64.65;101371.53;6218852;23;20356;-85
2023/06/21 10:47:20;;;;;;;6.78;6.28;;;;;;;27.55;64.94;101368.28;6217776;23;20013;-84
2023/06/21 10:49:46;;;;;;;6.55;5.93;;;;;;;28.11;61.86;101363.09;6193068;23;20015;-85
2023/06/21 10:52:13;;;;;;;6.97;5.60;;;;;;;28.08;65.44;101366.34;6192232;23;20281;-85
2023/06/21 10:54:41;;;;;;;6.57;5.72;;;;;;;28.31;63.34;101362.94;6219780;23;20004;-84
2023/06/21 10:57:08;;;;;;;11.35;7.10;;;;;;;28.02;62.74;101368.97;6194811;23;20448;-84
2023/06/21 11:00:07;;;;;;;6.30;5.50;;;;;;;28.22;62.61;101374.47;6218804;23;20008;-82
2023/06/21 11:02:47;;;;;;;6.47;5.83;;;;;;;28.51;60.02;101357.16;6203267;23;20012;-85
2023/06/21 11:05:23;;;;;;;9.52;6.40;;;;;;;27.74;61.14;101376.88;6218856;23;20018;-85
2023/06/21 11:07:59;;;;;;;5.30;4.80;;;;;;;28.30;59.60;101381.81;6219148;23;20440;-84
2023/06/21 11:10:49;;;;;;;7.35;5.50;;;;;;;28.56;59.88;101382.69;6195496;23;20013;-85
2023/06/21 11:13:36;;;;;;;6.40;5.80;;;;;;;27.92;61.29;101374.16;6243763;23;20005;-85
2023/06/21 11:16:12;;;;;;;6.35;5.85;;;;;;;27.44;63.23;101381.09;6219243;23;20435;-84
2023/06/21 11:18:37;;;;;;;8.13;5.88;;;;;;;27.63;63.29;101382.13;6192648;23;20016;-83
2023/06/21 11:21:06;;;;;;;5.80;5.20;;;;;;;27.75;63.04;101389.88;6191831;23;20016;-81
2023/06/21 11:23:47;;;;;;;5.80;4.80;;;;;;;28.75;59.04;101384.50;6217625;23;20071;-82
2023/06/21 11:26:14;;;;;;;5.40;4.50;;;;;;;28.87;55.19;101389.41;6218077;23;20056;-84
2023/06/21 11:28:45;;;;;;;5.20;4.18;;;;;;;28.66;56.40;101373.75;6219862;23;20008;-84
2023/06/21 11:31:14;;;;;;;6.80;4.38;;;;;;;28.55;57.21;101376.19;6195272;23;20012;-83
2023/06/21 11:33:46;;;;;;;7.07;3.78;;;;;;;28.88;55.40;101372.25;6219381;23;20013;-83
2023/06/21 11:36:12;;;;;;;5.53;4.18;;;;;;;28.93;54.58;101377.22;6223925;23;20005;-83
2023/06/21 11:38:47;;;;;;;7.03;4.07;;;;;;;27.85;55.54;101378.97;6223125;23;20016;-83
2023/06/21 11:41:36;;;;;;;4.20;3.80;;;;;;;27.87;56.99;101373.97;6195377;23;20320;-83
2023/06/21 11:44:03;;;;;;;4.35;3.70;;;;;;;28.27;56.22;101375.75;6221911;23;20361;-82
2023/06/21 11:46:31;;;;;;;4.63;4.15;;;;;;;28.75;53.69;101367.59;6173675;23;20503;-82
2023/06/21 11:49:00;;;;;;;4.43;4.03;;;;;;;28.51;55.38;101362.78;6251346;23;20019;-84
2023/06/21 11:51:29;;;;;;;5.78;3.75;;;;;;;28.80;54.52;101378.19;6199107;23;20009;-84
2023/06/21 11:53:55;;;;;;;4.25;3.40;;;;;;;28.88;53.60;101374.22;6224073;23;20009;-84
2023/06/21 11:56:21;;;;;;;24.98;5.05;;;;;;;29.10;53.08;101374.66;6174515;23;20012;-83
2023/06/21 11:58:48;;;;;;;5.30;3.70;;;;;;;29.09;51.82;101372.91;6225597;23;20011;-85
2023/06/21 12:01:14;;;;;;;3.60;3.15;;;;;;;28.46;52.92;101377.56;6221927;23;20012;-84
2023/06/21 12:03:40;;;;;;;4.97;3.30;;;;;;;28.03;53.48;101376.31;6220716;23;20391;-81
2023/06/21 12:06:06;;;;;;;5.72;3.97;;;;;;;27.44;55.54;101377.41;6220449;23;20087;-83
2023/06/21 12:08:36;;;;;;;6.68;3.72;;;;;;;28.26;55.04;101383.34;6222841;23;20080;-83
2023/06/21 12:11:09;;;;;;;4.03;3.60;;;;;;;28.41;54.51;101391.47;6246698;23;20083;-84
2023/06/21 12:13:37;;;;;;;4.70;3.63;;;;;;;28.60;53.21;101387.69;6195131;23;20396;-83
2023/06/21 12:16:07;;;;;;;3.97;3.67;;;;;;;28.13;55.10;101389.91;6194115;23;20076;-84
2023/06/21 12:18:36;;;;;;;9.77;3.80;;;;;;;28.02;56.13;101385.88;6196799;23;20055;-83
2023/06/21 12:21:04;;;;;;;4.05;3.75;;;;;;;27.76;57.31;101397.19;6217976;23;20035;-84